Sunday, May 27, 2018, 1:52 PM EDT
Back to Local

KWAL, Wallops Flight Fac Airport

Location: Wallops Island, VA, United States Lat: 37.933
Local Time: 1:52 PM EDT (17:52 GMT) Lon: -75.467
Time Zone: US/Eastern Elev: 39 ft

Show me the last for .
Show Decoded

2018-05-27 12:54 METAR KWAL 271654Z AUTO 23013G18KT 10SM BKN020 28/23 A2997 RMK AO2 SLP144
                 T02780228 =
2018-05-27 11:54 METAR KWAL 271554Z AUTO 24008G17KT 10SM OVC020 26/23 A2997 RMK AO2 SLP145
                 T02610228 =
2018-05-27 10:54 METAR KWAL 271454Z AUTO 25008KT 10SM SCT015 OVC021 26/23 A2997 RMK AO2 SLP144
                 T02560228 53006 =
2018-05-27 09:54 METAR KWAL 271354Z AUTO 25013G19KT 10SM BKN016 OVC021 26/23 A2996 RMK AO2 SLP141
                 T02610228 =
2018-05-27 09:41 METAR KWAL 271341Z AUTO 24010G17KT 10SM BKN016 OVC021 26/23 A2996 =
2018-05-27 09:29 METAR KWAL 271329Z AUTO 24011KT 10SM OVC014 26/23 A2995 RMK AO2 T02560228 =
2018-05-27 09:20 METAR KWAL 271320Z AUTO 24008KT 10SM OVC016 26/23 A2995 RMK AO2 T02560233 =
2018-05-27 08:54 METAR KWAL 271254Z AUTO 23010KT 10SM OVC013 26/23 A2995 RMK AO2 SLP138 T02560233
                 =
2018-05-27 08:33 METAR KWAL 271233Z AUTO 23010G17KT 10SM OVC013 24/23 A2995 RMK AO2 T02440228 =
2018-05-27 08:21 METAR KWAL 271221Z AUTO 22008KT 10SM BKN015 24/23 A2995 RMK AO2 T02440228 =
2018-05-27 07:54 METAR KWAL 271154Z AUTO 21008KT 10SM FEW046 FEW080 24/23 A2995 RMK AO2 SLP138
                 60050 70055 T02390228 10239 20217 53005 =
2018-05-27 06:54 METAR KWAL 271054Z AUTO 22008KT 10SM CLR 23/22 A2992 RMK AO2 RAE09 SLP130 P0001
                 T02280217 =
2018-05-27 05:54 METAR KWAL 270954Z AUTO 21008KT 10SM -RA SCT110 23/22 A2993 RMK AO2 LTG DSNT E
                 RAB11 SLP132 P0008 T02280222 =
2018-05-27 05:34 METAR KWAL 270934Z AUTO 22007KT 6SM -RA BR FEW015 SCT046 BKN095 23/22 A2994 RMK
                 AO2 LTG DSNT E AND SE RAB11 P0006 T02280222 =
2018-05-27 05:22 METAR KWAL 270922Z AUTO 20008KT 5SM RA BR BKN017 BKN046 OVC095 23/22 A2994 RMK
                 AO2 LTG DSNT SE AND S RAB11 P0003 T02280222 =
2018-05-27 05:07 METAR KWAL 270907Z AUTO 18009KT 10SM VCTS BKN019 OVC075 23/22 A2994 RMK AO2 LTG
                 DSNT S AND SW T02280217 =
2018-05-27 04:54 METAR KWAL 270854Z AUTO 17007KT 9SM BKN021 BKN075 OVC100 22/22 A2993 RMK AO2 LTG
                 DSNT S AND SW SLP132 60041 T02220217 55000 =
2018-05-27 03:54 METAR KWAL 270754Z AUTO 17004KT 10SM SCT075 SCT100 22/22 A2993 RMK AO2 LTG DSNT
                 E RAE14 SLP130 P0001 T02220217 =
2018-05-27 02:54 METAR KWAL 270654Z AUTO 21004KT 8SM -RA BKN110 22/21 A2992 RMK AO2 LTG DSNT E
                 AND SE RAB06 TSB15E30 SLP130 P0040 T02220211 =
2018-05-27 02:36 METAR KWAL 270636Z AUTO 28004KT 8SM -RA SCT031 BKN110 22/21 A2992 RMK AO2 LTG
                 DSNT N AND SE AND S RAB06 TSB15E30 P0038 T02220211 =
2018-05-27 02:27 METAR KWAL 270627Z AUTO 26003KT 3SM TSRA BR FEW022 BKN034 OVC110 22/21 A2993 RMK
                 AO2 LTG DSNT N AND SE RAB06 TSB15 P0038 T02170211 =
2018-05-27 02:24 METAR KWAL 270624Z AUTO 24004KT 2SM +TSRA BR FEW024 BKN034 OVC075 22/21 A2994
                 RMK AO2 LTG DSNT N AND SE RAB06 TSB15 P0037 T02170211 =
2018-05-27 02:15 METAR KWAL 270615Z AUTO 26008G23KT 1 1/4SM +TSRA BR BKN024 BKN050 22/21 A2994
                 RMK AO2 LTG DSNT SE RAB06 TSB15 P0020 T02220211 =
2018-05-27 02:11 METAR KWAL 270611Z AUTO 25014G23KT 2SM VCTS +RA BR FEW022 BKN027 BKN050 23/21
                 A2995 RMK AO2 VIS 3/4V5 RAB06 P0004 T02280211 =
2018-05-27 01:59 METAR KWAL 270559Z AUTO 21004KT 10SM VCTS FEW021 BKN026 BKN120 23/22 A2993 =
2018-05-27 01:54 METAR KWAL 270554Z AUTO 20004KT 10SM SCT026 BKN120 23/21 A2993 RMK AO2 LTG DSNT
                 NE AND SW RAB0455E48 SLP132 P0005 60005 T02280211 10250 20228 53003 =
2018-05-27 01:15 METAR KWAL 270515Z AUTO 26005KT 6SM RA BR FEW055 OVC100 23/22 A2993 RMK AO2 LTG
                 DSNT N AND NE RAB0455 P0002 T02330217 =
2018-05-27 00:54 METAR KWAL 270454Z AUTO 24009KT 10SM VCTS SCT042 BKN055 OVC100 25/22 A2993 RMK
                 AO2 LTG DSNT NW-NE RAB35E45 SLP133 P0000 T02500222 403170217 =
2018-05-27 00:29 METAR KWAL 270429Z AUTO 19006KT 10SM VCTS SCT041 BKN050 OVC085 24/23 A2992 RMK
                 AO2 LTG DSNT SW-NW T02440228 =
2018-05-26 23:54 METAR KWAL 270354Z AUTO 19005KT 10SM BKN070 24/23 A2992 RMK AO2 LTG DSNT SW
                 SLP128 T02390228 =
2018-05-26 22:54 METAR KWAL 270254Z AUTO 19006KT 10SM CLR 24/22 A2992 RMK AO2 SLP129 T02390222
                 53013 =
2018-05-26 21:54 METAR KWAL 270154Z AUTO 19006KT 10SM CLR 24/22 A2991 RMK AO2 SLP125 T02440222 =
2018-05-26 20:54 METAR KWAL 270054Z AUTO 20010KT 10SM CLR 24/22 A2989 RMK AO2 SLP120 T02390222 =
2018-05-26 19:54 METAR KWAL 262354Z AUTO 19011KT 10SM CLR 24/22 A2988 RMK AO2 SLP116 T02440222
                 10311 20244 53006 =
2018-05-26 18:54 METAR KWAL 262254Z AUTO 19011KT 10SM CLR 26/22 A2987 RMK AO2 SLP113 T02560222 =
2018-05-26 17:54 METAR KWAL 262154Z AUTO 19012KT 10SM SCT047 27/22 A2986 RMK AO2 SLP109 T02720222
                 =
2018-05-26 16:54 METAR KWAL 262054Z AUTO 19011KT 10SM SCT042 BKN050 27/22 A2987 RMK AO2 SLP111
                 T02670222 56005 =
2018-05-26 15:54 METAR KWAL 261954Z AUTO 19012KT 10SM SCT042 27/22 A2987 RMK AO2 SLP111 T02720222
                 =
2018-05-26 14:54 METAR KWAL 261854Z AUTO 18013KT 10SM SCT040 29/23 A2988 RMK AO2 SLP114 T02890228
                 =
2018-05-26 13:54 METAR KWAL 261754Z AUTO 24008KT 10SM BKN039 31/22 A2988 RMK AO2 SLP116 T03110217
                 10317 20250 58013 =

Support USWX by starting your Amazon purchase here.